Meteoliendo - El tiempo en Liendo - Informes METAR de Aeropuertos cercanos

Informes METAR de Aeropuertos cercanos

 

LEXJ - Santander
Actualización: 19/02/2018 12:00
Lluvia débil, Cubierto
Lluvia débil, Cubierto
 Viento del NO
Viento: NO 17 km/h
Temperatura: 13°C
Rocío: 12°C
Humedad: 94%
Barómetro: 1022 hPa
Resumen: Lluvia débil
Clouds: Cubierto
Visibility: 9 km
Cloud details: Muy nuboso 274 m
Muy nuboso 853 m
Cubierto 1219 m
2018/02/19 11:00 LEXJ 191100Z 31009KT 290V360 9000 -RA BKN009 BKN028 OVC040 13/12 Q1022
LEAS - Asturias/Aviles
Actualización: 19/02/2018 12:00
Lluvia débil, Muy nuboso
Lluvia débil, Muy nuboso
 Viento del NO
Viento: NO 11 km/h
Temperatura: 10°C
Wind Chill: 8°C
Rocío: 10°C
Humedad: 100%
Barómetro: 1024 hPa
Resumen: Lluvia débil
Clouds: Muy nuboso
Visibility: 6 km
Cloud details: Parcialmente nuboso 152 m
Muy nuboso 610 m
2018/02/19 11:00 LEAS 191100Z 31006KT 280V360 6000 -RA SCT005 BKN020 10/10 Q1024 TEMPO RA
LEBB - Bilbao
Actualización: 19/02/2018 12:00
Lluvia débil, Muy nuboso
Lluvia débil, Muy nuboso
 Viento del NO
Viento: NO 17 km/h
Temperatura: 12°C
Rocío: 11°C
Humedad: 94%
Barómetro: 1021 hPa
Resumen: Lluvia débil
Clouds: Muy nuboso
Visibility: 3 km
Cloud details: Parcialmente nuboso 213 m
Muy nuboso 457 m
Muy nuboso 762 m
2018/02/19 11:00 LEBB 191100Z 31009KT 3000 -RA SCT007 BKN015 BKN025 12/11 Q1021 TEMPO RA
 
LEBG - Burgos/Villafría
Actualización: 19/02/2018 12:00
Drizzle, Cubierto
Drizzle, Cubierto
 Viento del OSO
Viento: OSO 7 km/h
Temperatura: 5°C
Wind Chill: 3°C
Rocío: 5°C
Humedad: 100%
Barómetro: 1021 hPa
Resumen: Drizzle
Clouds: Cubierto
Visibility: 3 km
Cloud details: Cubierto 152 m
2018/02/19 11:00 LEBG 191100Z 25004KT 2500 DZ OVC005 05/05 Q1021
LELO - Logroño
Actualización: 19/02/2018 12:00
Muy nuboso
Muy nuboso
 Viento del O
Viento: O 26 km/h
Temperatura: 10°C
Wind Chill: 7°C
Rocío: 6°C
Humedad: 76%
Barómetro: 1020 hPa
Clouds: Muy nuboso
Visibility: 10 km
Cloud details: Parcialmente nuboso 762 m
Muy nuboso 914 m
2018/02/19 11:00 LELO 191100Z 26014KT 9999 SCT025 BKN030 10/06 Q1020
LEPP - Pamplona
Actualización: 19/02/2018 12:00
Lluvia débil, Muy nuboso
Lluvia débil, Muy nuboso
 Viento del NO
Viento: NO 11 km/h
Temperatura: 10°C
Wind Chill: 8°C
Rocío: 9°C
Humedad: 94%
Barómetro: 1019 hPa
Resumen: Lluvia débil
Clouds: Muy nuboso
Visibility: 10 km
Cloud details: Parcialmente nuboso 457 m
Muy nuboso 1067 m
2018/02/19 11:00 LEPP 191100Z 32006KT 300V360 9999 -RA SCT015 BKN035 10/09 Q1019
 
LESO - San Sebastián
Actualización: 19/02/2018 12:00
Cubierto
Cubierto
 Viento del NO
Viento: NO 11 km/h
Temperatura: 12°C
Rocío: 11°C
Humedad: 94%
Barómetro: 1020 hPa
Clouds: Cubierto
Visibility: 9 km
Cloud details: Muy nuboso 213 m
Cubierto 579 m
2018/02/19 11:00 LESO 191100Z 31006KT 260V030 9000 BKN007 OVC019 12/11 Q1020
LEST - Santiago de Compostela
Actualización: 19/02/2018 12:00
Muy nuboso
Muy nuboso
 Viento del N
Viento: N 9 km/h
Temperatura: 10°C
Wind Chill: 9°C
Rocío: 8°C
Humedad: 88%
Barómetro: 1024 hPa
Clouds: Muy nuboso
Visibility: 10 km
Cloud details: Few Clouds 244 m
Parcialmente nuboso 427 m
Muy nuboso 1219 m
2018/02/19 11:00 LEST 191100Z 36005KT 9999 FEW008 SCT014 BKN040 10/08 Q1024 TEMPO 3000 BR
LEVT - Vitoria
Actualización: 19/02/2018 12:00
Cubierto
Cubierto
 Viento del NO
Viento: NO 15 km/h
Temperatura: 9°C
Wind Chill: 7°C
Rocío: 7°C
Humedad: 87%
Barómetro: 1020 hPa
Clouds: Cubierto
Visibility: 10 km
Cloud details: Parcialmente nuboso 427 m
Cubierto 1067 m
2018/02/19 11:00 LEVT 191100Z 32008KT 270V360 9999 SCT014 OVC035 09/07 Q1020